Ana Sayfa
METAR-TAF:

METAR-TAF

Havaalanları :

Kupang, Endonezya

Enlem: 10-10-17S, Boylam: 123-40-16E, yükseklik: 102 m

Güncel hava durumu gözlemi

Rapor saat 15:00 UTC de 41 dakika önce yapıldı.
Rüzgar güney/güneybatıdan 2 kt
Sıcaklık 25°C
Nem 94%
Basınç 1010 hPa
Görüş mesafesi: 8000 m
1700 ft yükseklikte az bulutlu

METAR: WATT 241500Z 20002KT 8000 FEW017 25/24 Q1010 NOSIG

Saat: 22:41 (15:41 UTC)

Tahmin

Rapor saat 11:00 UTC de 4 saat ve 41 dakika önce yapıldı.
Ayın 24'si saat 12 UTC'den ayın 25'si saat 12 UTC'ye kadar geçerli Tahmin
Rüzgar batı/kuzeybatıdan 8 kt
Görüş mesafesi: 8000 m
1700 ft yükseklikte parçalı bulutlu

TAF: WATT 241100Z 2412/2512 30008KT 8000 SCT017

4.000'den fazla havaalanı için hava durumu gözlemleri ve tahminleri (METAR ve TAF raporları).

Kullanılabilir istasyonlar harita üzerinde sarı ve kırmızı noktalarla gösterilir.

İstasyonun adını görmek için fareyi noktanın üzerinde gezdirin.

Sonrasında hava gözlem ve tahminlerini görmek için tıklayın.

Haritayı değiştirmek için: yaklaştırmak için siyah artı işaretli yeşil düğmeye ve uzaklaştırmak için de eksi işaretli düğmeye hızla tıklayın; bitişik haritalar için yeşil okları kullanın.


METAR-TAF: